Airfield :
LOGIN :

Register | Disclaimer

   EN    FR    IT 

 










Legend :    VFR   Marginal VFR   IFR   Intensive IFR   Very Intensive IFR
Visi :
Ceiling :
>= 8 km
>= 3000ft
5 to 8 km
1000 to 3000 ft
1500m to 5 km
500 to 1000 ft
800 to 1500m
200 to 500 ft
< 800m
< 200 ft
Symbols :   Thunderstorms  Fog  Heavy snow  Heavy precipitations  Wind > 20 kt
SIGMETs :     Misc.  Thunderstorms  Icing  Turbulence  Mountain Waves  Volcanic Ashes






- Airport Elevation : 584 ft


LFPV - Villacoublay Vélizy

CURRENT METAR :
  • 050700Z AUTO 02008KT 9999 OVC028 03/M02 Q1024 TEMPO BKN010

EXPIRED METARs :
  • 050630Z AUTO 02010KT 350V050 9999 OVC024 03/M02 Q1024 TEMPO BKN010
  • 050600Z AUTO 02008KT 350V060 9999 OVC024 03/M01 Q1024 TEMPO BKN010
  • 050530Z AUTO 02010KT 340V050 9999 OVC024 04/M00 Q1024 TEMPO BKN010
  • 050500Z AUTO 02009KT 350V050 9999 BKN021 OVC027 04/01 Q1024 TEMPO BKN010
  • 050430Z AUTO 03009KT 360V060 9999 BKN018 OVC028 04/01 Q1024 TEMPO BKN010

TAF TAF LFPV
Valid from the 05 at 03:00 until the 06 at 03:00 UTC


050200Z 0503/0603 36010KT 9999 OVC015 TX06/0514Z TN02/0503Z
TEMPO 0506/0509 BKN010
BECMG 0510/0512 SCT030
BECMG 0513/0515 CAVOK



MET'MAP, your aeronautical weather chart ! - Copyright ORBIFLY December 2007 - Disclaimer

ORBIFLY MET'MAP TEAM :

Programming & Development : Alexandra Zaïnal
Concept & original design : Baudouin d'Aumeries
Assistance for programming : Marc-Olivier Méhu
Technical & hardware support : Manuel Goepfert

Contact : metmap@orbifly.com




SOURCES & CREDITS :

   NOAA